Time;durP1;ratioP1;P1;durP2;ratioP2;P2;SDS_P1;SDS_P2;PMS_P1;PMS_P2;Temp;Humidity;BMP_temperature;BMP_pressure;BME280_temperature;BME280_humidity;BME280_pressure;Samples;Min_cycle;Max_cycle;Signal;HPM_P1;HPM_P2
2022/01/30 00:00:00;;;;;;;49.25;44.97;;;;;;;-2.31;100.00;101616.28;5104826;28;20438;-81
2022/01/30 00:02:27;;;;;;;49.95;45.65;;;;;;;-2.37;100.00;101614.91;5095048;28;20392;-80
2022/01/30 00:04:53;;;;;;;89.97;70.47;;;;;;;-2.40;100.00;101602.09;5103006;28;20056;-82
2022/01/30 00:07:20;;;;;;;49.30;45.47;;;;;;;-2.48;100.00;101599.19;5095359;28;20116;-80
2022/01/30 00:09:48;;;;;;;49.35;45.47;;;;;;;-2.43;100.00;101602.31;5096144;28;20413;-80
2022/01/30 00:12:19;;;;;;;48.55;44.72;;;;;;;-2.47;100.00;101597.41;5104697;28;20044;-80
2022/01/30 00:14:52;;;;;;;47.53;44.13;;;;;;;-2.44;100.00;101592.00;5100974;28;20108;-81
2022/01/30 00:17:23;;;;;;;48.88;45.03;;;;;;;-2.51;100.00;101575.97;5099506;28;20044;-81
2022/01/30 00:19:57;;;;;;;48.58;44.75;;;;;;;-2.57;100.00;101573.78;5108013;28;20399;-79
2022/01/30 00:22:37;;;;;;;46.50;42.75;;;;;;;-2.88;100.00;101577.50;5106982;28;20051;-81
2022/01/30 00:25:10;;;;;;;47.63;43.92;;;;;;;-2.54;100.00;101579.59;5104039;28;20044;-82
2022/01/30 00:27:48;;;;;;;45.80;42.55;;;;;;;-2.62;100.00;101568.84;5103039;28;20048;-80
2022/01/30 00:30:16;;;;;;;51.90;47.90;;;;;;;-2.66;100.00;101564.81;5105065;28;20155;-81
2022/01/30 00:32:43;;;;;;;50.38;46.67;;;;;;;-2.61;100.00;101570.50;5113318;28;20462;-80
2022/01/30 00:35:10;;;;;;;55.17;51.03;;;;;;;-2.78;100.00;101571.63;5106473;28;20051;-81
2022/01/30 00:37:40;;;;;;;53.08;49.17;;;;;;;-2.54;100.00;101574.41;5106871;28;20140;-79
2022/01/30 00:40:08;;;;;;;50.03;46.40;;;;;;;-2.64;100.00;101573.31;5107251;28;20056;-81
2022/01/30 00:42:35;;;;;;;48.20;44.72;;;;;;;-2.58;100.00;101551.28;5108051;28;20060;-80
2022/01/30 00:45:04;;;;;;;47.58;44.17;;;;;;;-2.69;100.00;101552.00;5108362;28;20051;-80
2022/01/30 00:47:31;;;;;;;72.68;59.42;;;;;;;-2.65;100.00;101553.44;5099016;28;20044;-78
2022/01/30 00:49:57;;;;;;;51.90;47.15;;;;;;;-2.72;100.00;101547.00;5106561;28;20124;-79
2022/01/30 00:52:24;;;;;;;74.95;62.85;;;;;;;-3.01;100.00;101541.88;5107271;28;20104;-80
2022/01/30 00:54:51;;;;;;;52.33;47.83;;;;;;;-2.98;100.00;101537.44;5106443;28;20056;-81
2022/01/30 00:57:18;;;;;;;61.08;55.55;;;;;;;-3.09;100.00;101533.72;5108032;28;20457;-82
2022/01/30 00:59:44;;;;;;;53.50;49.60;;;;;;;-2.89;100.00;101529.88;5108021;28;20047;-80
2022/01/30 01:02:13;;;;;;;53.72;49.53;;;;;;;-3.04;100.00;101533.44;5109095;28;20059;-81
2022/01/30 01:04:39;;;;;;;49.55;45.75;;;;;;;-2.97;100.00;101515.69;5105838;28;20051;-81
2022/01/30 01:07:12;;;;;;;51.67;47.67;;;;;;;-2.97;100.00;101521.72;5108256;28;20039;-80
2022/01/30 01:09:40;;;;;;;52.13;48.00;;;;;;;-2.96;100.00;101515.59;5105960;28;20059;-80
2022/01/30 01:23:26;;;;;;;53.13;48.90;;;;;;;-3.21;100.00;101498.13;5105149;28;20067;-81
2022/01/30 01:25:53;;;;;;;52.45;48.20;;;;;;;-3.09;100.00;101492.16;5103570;28;20471;-81
2022/01/30 01:28:19;;;;;;;55.50;50.92;;;;;;;-3.20;100.00;101483.41;5105911;28;20117;-81
2022/01/30 01:30:46;;;;;;;53.80;49.75;;;;;;;-3.15;100.00;101468.31;5105180;28;20116;-80
2022/01/30 01:33:15;;;;;;;54.97;50.92;;;;;;;-3.04;100.00;101465.88;5109989;28;20044;-81
2022/01/30 01:35:42;;;;;;;49.75;45.95;;;;;;;-3.09;100.00;101458.34;5104811;28;20458;-81
2022/01/30 01:38:12;;;;;;;49.55;45.55;;;;;;;-3.06;100.00;101459.94;5106921;28;20191;-79
2022/01/30 01:40:39;;;;;;;49.92;46.25;;;;;;;-3.16;100.00;101449.31;5107488;28;20078;-82
2022/01/30 01:43:05;;;;;;;49.92;46.08;;;;;;;-3.02;100.00;101441.44;5102456;28;20040;-80
2022/01/30 01:45:35;;;;;;;50.78;47.15;;;;;;;-3.20;100.00;101447.03;5106574;28;20104;-81
2022/01/30 01:48:08;;;;;;;51.95;47.88;;;;;;;-2.97;100.00;101450.72;5109912;28;20079;-80
2022/01/30 01:50:39;;;;;;;47.55;44.08;;;;;;;-3.16;100.00;101444.09;5108367;28;20458;-82
2022/01/30 01:53:07;;;;;;;50.42;46.70;;;;;;;-2.91;100.00;101438.13;5103266;28;20044;-80
2022/01/30 01:55:35;;;;;;;51.42;47.22;;;;;;;-2.95;100.00;101431.47;5103528;28;20127;-79
2022/01/30 01:58:01;;;;;;;51.13;47.10;;;;;;;-2.98;100.00;101428.25;5106056;28;20051;-81
2022/01/30 02:00:28;;;;;;;47.25;43.42;;;;;;;-2.91;100.00;101422.53;5105359;28;20067;-80
2022/01/30 02:02:55;;;;;;;50.30;46.50;;;;;;;-2.85;100.00;101424.72;5098055;28;20116;-81
2022/01/30 02:05:25;;;;;;;46.40;43.00;;;;;;;-2.81;100.00;101418.41;5106759;28;20044;-80
2022/01/30 02:08:24;;;;;;;49.30;45.40;;;;;;;-2.74;100.00;101411.03;5102663;28;20040;-83
2022/01/30 02:10:56;;;;;;;53.35;49.35;;;;;;;-2.97;100.00;101404.75;5096573;28;20051;-80
2022/01/30 02:14:00;;;;;;;52.72;48.72;;;;;;;-2.87;100.00;101402.38;5111154;28;20044;-80
2022/01/30 02:24:59;;;;;;;50.97;47.38;;;;;;;-2.83;100.00;101383.03;5101504;28;20096;-80
2022/01/30 02:27:31;;;;;;;48.35;44.58;;;;;;;-2.97;100.00;101386.53;5096568;28;20044;-80
2022/01/30 02:29:59;;;;;;;47.90;44.33;;;;;;;-2.92;100.00;101381.88;5100417;28;20060;-79
2022/01/30 02:32:26;;;;;;;48.80;45.35;;;;;;;-2.81;100.00;101371.59;5095579;28;20048;-79
2022/01/30 02:34:53;;;;;;;49.65;46.00;;;;;;;-2.87;100.00;101368.59;5104229;28;20480;-80
2022/01/30 02:37:19;;;;;;;49.88;45.95;;;;;;;-2.74;100.00;101366.00;5100942;28;20048;-81
2022/01/30 02:39:48;;;;;;;47.75;44.25;;;;;;;-2.90;100.00;101372.22;5100702;28;20108;-80
2022/01/30 02:42:22;;;;;;;48.28;44.78;;;;;;;-2.86;100.00;101365.88;5107205;28;20051;-80
2022/01/30 02:44:53;;;;;;;47.55;44.05;;;;;;;-2.85;100.00;101367.53;5105673;28;20047;-80
2022/01/30 02:47:37;;;;;;;52.08;48.47;;;;;;;-2.83;100.00;101355.25;5095587;28;20055;-80
2022/01/30 02:50:12;;;;;;;52.38;48.72;;;;;;;-2.66;100.00;101355.88;5101784;28;20131;-81
2022/01/30 02:52:42;;;;;;;51.10;47.35;;;;;;;-2.77;100.00;101352.25;5104070;28;20170;-79
2022/01/30 02:55:11;;;;;;;48.28;44.53;;;;;;;-2.81;100.00;101334.38;5104243;28;20491;-81
2022/01/30 02:57:38;;;;;;;49.15;45.63;;;;;;;-2.94;100.00;101333.53;5105397;28;20052;-80
2022/01/30 03:02:47;;;;;;;49.13;45.92;;;;;;;-2.61;100.00;101336.44;5124904;22;20457;-81
2022/01/30 03:05:14;;;;;;;47.47;44.15;;;;;;;-2.72;100.00;101322.50;5093532;28;20461;-80
2022/01/30 03:07:40;;;;;;;54.10;50.30;;;;;;;-2.73;100.00;101316.47;5093328;28;20508;-81
2022/01/30 03:10:10;;;;;;;51.90;48.15;;;;;;;-2.95;100.00;101314.50;5093105;28;20552;-80
2022/01/30 03:12:38;;;;;;;51.67;48.13;;;;;;;-2.73;100.00;101313.03;5093473;28;20048;-79
2022/01/30 03:15:06;;;;;;;49.85;46.35;;;;;;;-2.77;100.00;101308.03;5093428;28;20446;-79
2022/01/30 03:17:33;;;;;;;47.65;44.17;;;;;;;-2.85;100.00;101306.91;5093731;28;20044;-80
2022/01/30 03:20:00;;;;;;;49.35;45.65;;;;;;;-2.68;100.00;101290.97;5094107;28;20094;-80
2022/01/30 03:22:27;;;;;;;50.58;46.80;;;;;;;-2.80;100.00;101284.84;5093646;28;20052;-79
2022/01/30 03:24:54;;;;;;;48.25;44.65;;;;;;;-2.54;100.00;101288.25;5093296;28;20062;-79
2022/01/30 03:27:21;;;;;;;50.50;46.90;;;;;;;-2.55;100.00;101280.53;5093630;28;20113;-79
2022/01/30 03:29:52;;;;;;;48.67;45.08;;;;;;;-2.56;100.00;101278.91;5092983;28;20124;-80
2022/01/30 03:32:19;;;;;;;62.17;53.78;;;;;;;-2.57;100.00;101267.66;5093530;28;20058;-80
2022/01/30 03:34:46;;;;;;;48.00;44.33;;;;;;;-2.45;100.00;101271.19;5092924;28;20052;-78
2022/01/30 03:37:12;;;;;;;52.58;48.78;;;;;;;-2.65;100.00;101263.94;5093404;28;20450;-80
2022/01/30 03:39:39;;;;;;;50.03;46.70;;;;;;;-2.49;100.00;101258.47;5093316;28;20048;-82
2022/01/30 03:42:07;;;;;;;49.15;45.35;;;;;;;-2.58;100.00;101262.56;5093305;28;20484;-80
2022/01/30 03:44:34;;;;;;;46.85;43.17;;;;;;;-2.46;100.00;101260.88;5093025;28;20073;-80
2022/01/30 03:47:02;;;;;;;50.28;46.58;;;;;;;-2.48;100.00;101254.94;5093721;28;20048;-80
2022/01/30 03:49:29;;;;;;;51.65;48.17;;;;;;;-2.33;100.00;101253.84;5093495;28;20121;-78
2022/01/30 03:51:55;;;;;;;58.65;52.42;;;;;;;-2.44;100.00;101252.03;5093393;28;20051;-78
2022/01/30 03:54:22;;;;;;;58.67;52.22;;;;;;;-2.59;100.00;101246.13;5093045;28;20113;-79
2022/01/30 03:56:49;;;;;;;48.72;45.13;;;;;;;-2.37;100.00;101239.41;5092971;28;20484;-80
2022/01/30 03:59:16;;;;;;;51.30;47.90;;;;;;;-2.37;100.00;101240.22;5092685;28;20044;-78
2022/01/30 04:01:42;;;;;;;50.50;47.10;;;;;;;-2.23;100.00;101241.84;5093190;28;20044;-79
2022/01/30 04:04:10;;;;;;;44.40;41.20;;;;;;;-2.18;100.00;101228.50;5092930;28;20105;-80
2022/01/30 04:06:38;;;;;;;46.50;43.30;;;;;;;-1.97;100.00;101220.91;5093306;28;20113;-80
2022/01/30 04:09:05;;;;;;;46.17;43.38;;;;;;;-2.18;100.00;101215.47;5093254;28;20056;-80
2022/01/30 04:11:32;;;;;;;49.35;45.88;;;;;;;-2.09;100.00;101207.00;5092752;28;20048;-78
2022/01/30 04:13:59;;;;;;;46.78;43.72;;;;;;;-2.25;100.00;101199.47;5092988;28;20052;-78
2022/01/30 04:16:26;;;;;;;46.58;43.55;;;;;;;-1.67;100.00;101203.00;5093319;28;20044;-78
2022/01/30 04:18:53;;;;;;;52.47;49.03;;;;;;;-2.09;100.00;101196.59;5092698;28;20545;-78
2022/01/30 04:21:22;;;;;;;52.30;48.65;;;;;;;-1.97;100.00;101180.06;5092723;28;20102;-80
2022/01/30 04:23:48;;;;;;;47.60;44.60;;;;;;;-1.95;100.00;101178.19;5093018;28;20052;-79
2022/01/30 04:26:15;;;;;;;46.78;43.80;;;;;;;-2.07;100.00;101168.69;5092736;28;20397;-77
2022/01/30 04:28:42;;;;;;;47.05;43.85;;;;;;;-2.07;100.00;101163.47;5091667;28;20040;-79
2022/01/30 04:31:09;;;;;;;51.17;47.88;;;;;;;-2.09;100.00;101148.00;5088576;28;20113;-77
2022/01/30 04:33:37;;;;;;;54.72;50.83;;;;;;;-1.98;100.00;101144.56;5092762;28;20121;-78
2022/01/30 04:36:08;;;;;;;48.85;45.95;;;;;;;-1.89;100.00;101145.66;5092577;28;20055;-79
2022/01/30 04:38:51;;;;;;;47.67;44.38;;;;;;;-1.94;100.00;101139.97;5092422;28;20541;-79
2022/01/30 04:41:36;;;;;;;50.55;46.67;;;;;;;-1.92;100.00;101141.50;5092702;28;20062;-80
2022/01/30 04:57:53;;;;;;;50.88;47.35;;;;;;;-1.97;100.00;101106.34;5092866;28;20040;-79
2022/01/30 05:03:22;;;;;;;53.85;50.10;;;;;;;-1.90;100.00;101091.94;5094610;28;20066;-80
2022/01/30 05:06:02;;;;;;;48.00;44.90;;;;;;;-1.91;100.00;101091.09;5085608;28;20139;-80
2022/01/30 05:08:29;;;;;;;59.58;53.72;;;;;;;-1.96;100.00;101084.59;5095752;28;20070;-78
2022/01/30 05:10:58;;;;;;;53.38;49.40;;;;;;;-1.96;100.00;101080.22;5095840;28;20044;-79
2022/01/30 05:13:28;;;;;;;59.78;54.03;;;;;;;-1.89;100.00;101073.59;5095823;28;20040;-78
2022/01/30 05:15:56;;;;;;;53.88;49.92;;;;;;;-1.90;100.00;101061.53;5096413;28;20048;-78
2022/01/30 05:18:25;;;;;;;49.33;45.85;;;;;;;-1.88;100.00;101059.59;5095576;28;20467;-78
2022/01/30 05:20:52;;;;;;;49.60;46.45;;;;;;;-1.77;100.00;101050.16;5095914;28;20048;-78
2022/01/30 05:23:19;;;;;;;50.72;47.55;;;;;;;-1.78;100.00;101051.94;5095840;28;20172;-79
2022/01/30 05:25:47;;;;;;;47.42;44.53;;;;;;;-1.54;100.00;101050.97;5095543;28;20052;-78
2022/01/30 05:28:15;;;;;;;46.85;43.97;;;;;;;-1.46;100.00;101051.22;5095990;28;20450;-81
2022/01/30 05:30:43;;;;;;;46.53;43.63;;;;;;;-1.42;100.00;101056.09;5095391;28;20059;-80
2022/01/30 05:33:10;;;;;;;47.00;44.13;;;;;;;-1.42;100.00;101070.88;5094458;28;20475;-79
2022/01/30 05:35:37;;;;;;;48.25;45.15;;;;;;;-1.46;100.00;101056.44;5095497;28;20040;-80
2022/01/30 05:38:05;;;;;;;46.67;43.50;;;;;;;-1.35;100.00;101053.00;5094626;28;20040;-79
2022/01/30 05:40:35;;;;;;;45.78;42.80;;;;;;;-0.90;100.00;101065.94;5095543;28;20040;-79
2022/01/30 05:43:02;;;;;;;47.17;44.08;;;;;;;-1.29;100.00;101053.34;5095267;28;20044;-80
2022/01/30 05:45:34;;;;;;;47.45;44.45;;;;;;;-1.19;100.00;101050.81;5095883;28;20064;-80
2022/01/30 05:48:05;;;;;;;47.35;44.45;;;;;;;-1.20;100.00;101054.38;5095518;28;20052;-80
2022/01/30 05:50:33;;;;;;;47.28;44.47;;;;;;;-1.31;100.00;101041.38;5094014;28;20050;-78
2022/01/30 05:52:59;;;;;;;47.58;44.50;;;;;;;-1.19;100.00;101036.00;5088427;28;20109;-80
2022/01/30 05:55:26;;;;;;;47.53;44.45;;;;;;;-1.19;100.00;101022.97;5088476;28;20048;-77
2022/01/30 05:57:53;;;;;;;47.42;44.53;;;;;;;-1.07;100.00;101005.53;5089363;28;20040;-78
2022/01/30 06:00:20;;;;;;;48.00;45.08;;;;;;;-0.96;100.00;101004.69;5087305;28;20473;-79
2022/01/30 06:02:48;;;;;;;50.15;47.05;;;;;;;-0.89;100.00;101003.22;5085137;28;20052;-77
2022/01/30 06:05:17;;;;;;;46.20;43.50;;;;;;;-0.87;100.00;100996.09;5089439;28;20125;-78
2022/01/30 06:07:51;;;;;;;46.45;43.58;;;;;;;-0.85;100.00;100986.34;5090392;28;20661;-79
2022/01/30 06:10:19;;;;;;;46.78;43.97;;;;;;;-0.67;100.00;100986.63;5087373;28;20048;-81
2022/01/30 06:12:46;;;;;;;47.70;44.78;;;;;;;-0.69;100.00;100991.16;5091433;28;20117;-78
2022/01/30 06:15:14;;;;;;;48.40;45.30;;;;;;;-0.58;100.00;100983.25;5090871;28;20117;-80
2022/01/30 06:17:41;;;;;;;47.97;44.92;;;;;;;-0.53;100.00;100977.69;5087092;28;20056;-77
2022/01/30 06:20:10;;;;;;;46.13;43.20;;;;;;;-0.52;100.00;100966.28;5087997;28;20488;-78
2022/01/30 06:22:37;;;;;;;48.35;45.45;;;;;;;-0.47;100.00;100953.69;5089547;28;20424;-79
2022/01/30 06:25:05;;;;;;;49.28;46.47;;;;;;;-0.31;100.00;100951.41;5089350;28;20109;-78
2022/01/30 06:27:32;;;;;;;48.35;45.45;;;;;;;-0.21;100.00;100946.28;5088250;28;20048;-80
2022/01/30 06:29:59;;;;;;;48.53;45.63;;;;;;;-0.32;100.00;100939.34;5088999;28;20060;-80
2022/01/30 06:32:26;;;;;;;52.42;48.30;;;;;;;-0.32;100.00;100931.50;5087872;28;20056;-80
2022/01/30 06:34:53;;;;;;;48.63;45.40;;;;;;;-0.35;100.00;100936.16;5089671;28;20121;-82
2022/01/30 06:37:22;;;;;;;50.60;47.35;;;;;;;0.06;100.00;100931.78;5090040;28;20124;-78
2022/01/30 06:39:48;;;;;;;49.50;46.47;;;;;;;-0.12;100.00;100939.41;5090234;28;20048;-80
2022/01/30 06:42:15;;;;;;;48.38;45.47;;;;;;;-0.15;100.00;100939.69;5083494;28;20109;-78
2022/01/30 06:44:44;;;;;;;50.95;47.70;;;;;;;-0.08;100.00;100938.22;5091431;28;20457;-78
2022/01/30 06:47:11;;;;;;;49.88;46.88;;;;;;;-0.06;100.00;100931.06;5086441;28;20127;-80
2022/01/30 06:49:38;;;;;;;50.47;47.45;;;;;;;-0.13;100.00;100933.38;5090540;28;20047;-77
2022/01/30 06:52:06;;;;;;;49.92;47.03;;;;;;;0.00;100.00;100925.34;5090849;28;20067;-82
2022/01/30 06:54:34;;;;;;;49.72;46.83;;;;;;;0.02;100.00;100923.41;5087319;28;20095;-81
2022/01/30 06:57:01;;;;;;;50.38;47.38;;;;;;;-0.02;100.00;100915.00;5088767;28;20090;-82
2022/01/30 06:59:28;;;;;;;51.05;47.58;;;;;;;0.14;100.00;100924.13;5086586;28;20458;-80
2022/01/30 07:01:54;;;;;;;50.05;46.72;;;;;;;0.23;100.00;100918.91;5085069;28;20048;-81
2022/01/30 07:04:21;;;;;;;52.58;49.20;;;;;;;0.21;100.00;100904.34;5086903;28;20044;-82
2022/01/30 07:06:48;;;;;;;51.15;48.17;;;;;;;0.30;100.00;100903.53;5089130;28;20048;-81
2022/01/30 07:09:14;;;;;;;51.17;48.17;;;;;;;0.33;100.00;100897.22;5089304;28;20094;-80
2022/01/30 07:11:42;;;;;;;52.40;48.85;;;;;;;0.47;100.00;100901.22;5089402;28;20049;-81
2022/01/30 07:14:09;;;;;;;53.67;50.47;;;;;;;0.51;100.00;100910.44;5091629;28;20051;-81
2022/01/30 07:16:36;;;;;;;51.88;48.42;;;;;;;0.57;100.00;100908.09;5084579;28;20180;-82
2022/01/30 07:19:03;;;;;;;51.97;48.63;;;;;;;0.60;100.00;100912.25;5085876;28;20538;-82
2022/01/30 07:21:29;;;;;;;50.97;47.70;;;;;;;0.60;100.00;100909.63;5027294;28;20059;-85
2022/01/30 07:23:56;;;;;;;50.92;47.72;;;;;;;0.71;100.00;100906.06;5072902;28;20103;-81
2022/01/30 07:26:23;;;;;;;52.85;49.10;;;;;;;0.66;100.00;100899.44;5071685;28;20484;-80
2022/01/30 07:28:51;;;;;;;50.80;47.58;;;;;;;0.72;100.00;100886.78;5072165;28;20052;-82
2022/01/30 07:31:18;;;;;;;50.50;47.40;;;;;;;0.75;100.00;100897.81;5073101;28;20381;-81
2022/01/30 07:33:44;;;;;;;59.75;55.97;;;;;;;0.77;100.00;100879.38;5071570;28;20056;-82
2022/01/30 07:36:11;;;;;;;66.60;62.20;;;;;;;0.82;100.00;100879.78;5073318;28;20561;-80
2022/01/30 07:38:38;;;;;;;62.85;58.85;;;;;;;0.89;100.00;100873.03;5074121;28;20048;-83
2022/01/30 07:41:05;;;;;;;60.28;56.42;;;;;;;0.87;100.00;100873.16;5071888;28;20472;-81
2022/01/30 07:43:32;;;;;;;53.72;50.22;;;;;;;0.96;100.00;100865.44;5073169;28;20048;-80
2022/01/30 07:46:03;;;;;;;51.22;48.10;;;;;;;0.86;100.00;100874.13;5072555;28;20106;-79
2022/01/30 07:48:29;;;;;;;53.85;50.55;;;;;;;0.96;100.00;100868.06;5072154;28;20140;-80
2022/01/30 07:50:56;;;;;;;59.60;55.85;;;;;;;1.01;99.72;100855.41;5071432;28;20451;-79
2022/01/30 07:53:23;;;;;;;59.58;55.90;;;;;;;0.95;100.00;100846.31;5029572;28;20138;-82
2022/01/30 07:55:49;;;;;;;59.50;55.83;;;;;;;1.06;99.68;100858.41;5071132;28;20048;-78
2022/01/30 07:58:16;;;;;;;59.08;55.38;;;;;;;1.20;97.42;100854.53;5070955;28;20052;-80
2022/01/30 08:00:43;;;;;;;59.75;55.60;;;;;;;1.37;94.07;100849.38;5071134;28;20048;-78
2022/01/30 08:03:12;;;;;;;63.08;58.50;;;;;;;1.50;97.08;100843.00;5072123;28;20040;-78
2022/01/30 08:05:39;;;;;;;70.18;63.88;;;;;;;1.35;91.49;100837.41;5071947;28;20117;-79
2022/01/30 08:08:06;;;;;;;62.83;58.50;;;;;;;1.57;99.68;100828.34;5072302;28;20044;-82
2022/01/30 08:10:33;;;;;;;67.10;62.40;;;;;;;1.31;93.59;100825.59;5069746;28;20105;-78
2022/01/30 08:13:00;;;;;;;66.35;61.85;;;;;;;1.45;94.10;100832.13;5077352;28;20052;-78
2022/01/30 08:15:27;;;;;;;68.75;63.70;;;;;;;1.46;91.89;100839.84;5076467;28;20040;-80
2022/01/30 08:17:54;;;;;;;64.65;60.53;;;;;;;1.74;92.33;100822.34;5079228;28;20059;-79
2022/01/30 08:20:26;;;;;;;65.95;61.65;;;;;;;1.87;90.06;100827.25;5072897;28;20044;-78
2022/01/30 08:22:54;;;;;;;57.00;53.70;;;;;;;2.28;98.04;100814.59;5069586;28;20045;-78
2022/01/30 08:25:24;;;;;;;62.42;58.40;;;;;;;2.20;85.94;100809.25;5072119;28;20044;-79
2022/01/30 08:27:52;;;;;;;68.97;63.42;;;;;;;2.23;79.47;100814.19;5070438;28;20452;-78
2022/01/30 08:30:19;;;;;;;63.30;59.17;;;;;;;2.37;78.30;100808.44;5070846;28;20044;-78
2022/01/30 08:32:48;;;;;;;63.78;59.97;;;;;;;2.43;76.38;100796.53;5072089;28;20070;-78
2022/01/30 08:35:16;;;;;;;64.35;60.35;;;;;;;2.65;78.30;100800.47;5070558;28;20503;-78
2022/01/30 08:37:44;;;;;;;57.92;54.38;;;;;;;2.75;78.58;100798.56;5072956;28;20133;-78
2022/01/30 08:40:13;;;;;;;61.90;57.97;;;;;;;2.55;74.44;100782.22;5074829;28;20041;-78
2022/01/30 08:42:40;;;;;;;51.75;48.75;;;;;;;2.58;73.71;100786.34;5074967;28;20048;-79
2022/01/30 08:45:09;;;;;;;53.35;50.15;;;;;;;2.58;73.79;100779.28;5075146;28;20118;-79
2022/01/30 08:47:37;;;;;;;52.65;49.42;;;;;;;2.60;72.42;100772.06;5074989;28;20048;-78
2022/01/30 08:50:05;;;;;;;53.60;50.45;;;;;;;2.72;72.69;100760.38;5072448;28;20041;-80
2022/01/30 08:52:32;;;;;;;63.85;58.67;;;;;;;3.08;71.55;100769.94;5073835;28;20045;-78
2022/01/30 08:55:01;;;;;;;55.33;51.83;;;;;;;3.12;69.57;100760.78;5075862;28;20053;-78
2022/01/30 08:57:28;;;;;;;55.13;51.83;;;;;;;3.23;69.01;100757.88;5075349;28;20464;-79
2022/01/30 08:59:57;;;;;;;54.95;51.60;;;;;;;3.22;67.49;100759.69;5074705;28;20484;-80
2022/01/30 09:02:24;;;;;;;53.22;50.03;;;;;;;3.36;69.28;100754.81;5074908;28;20070;-78
2022/01/30 09:04:51;;;;;;;53.75;50.35;;;;;;;3.36;67.46;100763.53;5074811;28;20040;-79
2022/01/30 09:07:18;;;;;;;66.50;60.40;;;;;;;3.56;65.87;100750.13;5073184;28;20431;-77
2022/01/30 09:09:44;;;;;;;64.75;58.65;;;;;;;3.72;65.07;100741.47;5075570;28;20114;-79
2022/01/30 09:12:13;;;;;;;57.15;53.85;;;;;;;3.92;63.82;100737.56;5074239;28;20458;-78
2022/01/30 09:14:41;;;;;;;60.13;56.03;;;;;;;4.00;58.87;100719.19;5074132;28;20476;-78
2022/01/30 09:17:12;;;;;;;56.28;52.60;;;;;;;4.11;56.06;100718.88;5075899;28;20048;-78
2022/01/30 09:19:40;;;;;;;55.13;51.75;;;;;;;4.06;56.80;100717.72;5074159;28;20045;-77
2022/01/30 09:22:07;;;;;;;53.08;49.97;;;;;;;4.05;59.24;100719.50;5073458;28;20385;-79
2022/01/30 09:24:34;;;;;;;50.63;47.70;;;;;;;3.89;57.57;100709.81;4998349;28;20045;-79
2022/01/30 09:27:00;;;;;;;53.35;50.13;;;;;;;3.74;54.37;100697.47;5073058;28;20125;-78
2022/01/30 09:29:29;;;;;;;56.50;53.20;;;;;;;3.85;53.11;100702.44;5070582;28;20049;-77
2022/01/30 09:31:56;;;;;;;56.35;53.08;;;;;;;3.87;52.37;100690.78;5073277;28;20049;-78
2022/01/30 09:34:23;;;;;;;56.55;53.35;;;;;;;3.95;56.17;100666.28;5073488;28;20553;-78
2022/01/30 09:36:50;;;;;;;54.63;51.03;;;;;;;3.96;53.69;100683.69;5074866;28;20098;-78
2022/01/30 09:39:17;;;;;;;55.40;52.28;;;;;;;3.96;53.65;100667.94;5075300;28;20045;-79
2022/01/30 09:41:45;;;;;;;53.88;50.78;;;;;;;3.95;53.79;100657.59;5075469;28;20040;-79
2022/01/30 09:44:12;;;;;;;53.47;50.38;;;;;;;3.93;54.58;100651.69;5076247;28;20109;-79
2022/01/30 09:46:42;;;;;;;57.40;53.97;;;;;;;3.95;56.19;100639.19;5076267;28;20060;-79
2022/01/30 09:49:10;;;;;;;55.00;51.75;;;;;;;4.08;55.12;100631.63;5074463;28;20615;-78
2022/01/30 09:51:37;;;;;;;56.53;53.22;;;;;;;4.10;55.17;100621.78;5076120;28;20113;-79
2022/01/30 09:54:04;;;;;;;53.75;50.55;;;;;;;4.23;57.73;100610.75;5073271;28;20129;-79
2022/01/30 09:56:31;;;;;;;55.22;51.72;;;;;;;4.28;56.45;100600.56;5075315;28;20110;-78
2022/01/30 09:58:57;;;;;;;53.50;50.30;;;;;;;4.32;58.11;100602.66;5074061;28;20056;-78
2022/01/30 10:01:30;;;;;;;54.92;51.72;;;;;;;4.29;54.96;100603.00;5074460;28;20044;-77
2022/01/30 10:03:59;;;;;;;55.05;51.85;;;;;;;4.40;54.75;100593.94;5074953;28;20433;-78
2022/01/30 10:06:32;;;;;;;53.85;50.65;;;;;;;4.61;54.69;100580.25;5076881;28;20386;-76
2022/01/30 10:09:05;;;;;;;60.25;55.60;;;;;;;4.69;55.81;100572.34;5073455;28;20044;-80
2022/01/30 10:11:47;;;;;;;50.70;47.60;;;;;;;4.81;56.52;100567.47;5070467;28;20541;-78
2022/01/30 10:14:15;;;;;;;52.50;49.15;;;;;;;5.09;54.51;100586.28;5076853;28;20135;-79
2022/01/30 10:16:44;;;;;;;54.13;50.75;;;;;;;5.15;58.67;100558.44;5079798;28;20056;-78
2022/01/30 10:19:17;;;;;;;51.88;48.78;;;;;;;5.27;57.62;100578.94;5072326;28;20487;-78
2022/01/30 10:21:45;;;;;;;51.78;48.63;;;;;;;5.24;63.50;100586.38;5080460;28;20538;-77
2022/01/30 10:24:25;;;;;;;53.97;50.92;;;;;;;5.35;57.74;100585.94;5083030;28;20446;-78
2022/01/30 10:26:53;;;;;;;55.38;52.05;;;;;;;5.43;62.19;100578.00;5082152;28;20121;-77
2022/01/30 10:29:22;;;;;;;54.83;51.72;;;;;;;5.59;64.15;100578.88;5081890;28;20041;-77
2022/01/30 10:32:04;;;;;;;55.90;52.40;;;;;;;6.15;56.56;100580.22;5079294;28;20070;-78
2022/01/30 10:34:33;;;;;;;56.97;53.67;;;;;;;6.62;55.44;100583.50;5075951;28;20044;-77
2022/01/30 10:37:17;;;;;;;53.22;50.38;;;;;;;6.52;56.34;100583.78;5082747;28;20133;-80
2022/01/30 10:39:55;;;;;;;52.25;49.33;;;;;;;6.08;60.34;100589.00;5079451;28;20102;-78
2022/01/30 10:42:38;;;;;;;56.95;53.83;;;;;;;6.31;62.39;100588.97;5082588;28;20059;-79
2022/01/30 10:45:07;;;;;;;56.22;53.10;;;;;;;7.52;58.66;100577.81;5082836;28;20043;-80
2022/01/30 10:47:35;;;;;;;56.30;53.22;;;;;;;7.84;57.03;100566.88;5078926;28;20044;-78
2022/01/30 10:50:09;;;;;;;54.90;51.90;;;;;;;7.83;55.01;100566.06;5077916;28;20037;-79
2022/01/30 10:52:48;;;;;;;53.83;50.60;;;;;;;8.10;57.73;100553.84;5081880;28;20083;-79
2022/01/30 10:55:15;;;;;;;54.20;51.20;;;;;;;9.43;55.77;100554.41;5084135;28;20105;-79
2022/01/30 10:57:42;;;;;;;53.70;50.80;;;;;;;7.86;57.81;100544.53;5068189;28;21503;-79
2022/01/30 11:00:09;;;;;;;56.47;52.83;;;;;;;9.22;53.80;100541.34;5074784;28;20094;-78
2022/01/30 11:02:39;;;;;;;51.25;48.50;;;;;;;8.21;56.88;100540.09;5069818;28;20495;-78
2022/01/30 11:05:12;;;;;;;53.55;50.72;;;;;;;8.11;58.38;100518.47;5081506;28;20044;-79
2022/01/30 11:07:39;;;;;;;55.80;52.70;;;;;;;8.79;53.25;100518.59;5078214;28;20057;-78
2022/01/30 11:10:12;;;;;;;52.10;49.08;;;;;;;9.40;54.42;100499.97;5076996;28;20469;-79
2022/01/30 11:12:46;;;;;;;53.28;50.35;;;;;;;10.08;54.31;100494.41;5077479;28;20129;-80
2022/01/30 11:15:34;;;;;;;54.03;50.97;;;;;;;8.75;54.99;100506.78;5077465;28;20044;-79
2022/01/30 11:18:03;;;;;;;54.67;51.63;;;;;;;9.55;53.38;100491.81;5072960;28;20473;-79
2022/01/30 11:20:32;;;;;;;55.97;52.67;;;;;;;11.77;51.56;100478.94;5072787;28;20450;-78
2022/01/30 11:23:01;;;;;;;53.63;50.53;;;;;;;10.88;52.53;100466.72;5071052;28;20054;-79
2022/01/30 11:25:33;;;;;;;54.75;51.33;;;;;;;10.52;50.63;100458.34;5073091;28;20465;-80
2022/01/30 11:28:02;;;;;;;56.45;53.25;;;;;;;11.15;47.40;100457.56;5072431;28;20048;-79
2022/01/30 11:30:29;;;;;;;56.75;53.47;;;;;;;10.23;52.51;100461.50;5070602;28;20128;-80
2022/01/30 11:32:57;;;;;;;57.08;53.67;;;;;;;10.82;51.22;100460.44;5072586;28;20076;-80
2022/01/30 11:35:24;;;;;;;57.40;53.90;;;;;;;10.64;50.49;100461.13;5071524;28;20044;-79
2022/01/30 11:37:53;;;;;;;57.30;53.90;;;;;;;13.13;48.05;100439.56;5074443;28;20048;-79
2022/01/30 11:40:21;;;;;;;55.17;51.97;;;;;;;11.63;48.39;100432.22;5066936;28;20485;-78
2022/01/30 11:42:51;;;;;;;53.03;50.13;;;;;;;10.46;50.75;100418.53;5068874;28;20045;-79
2022/01/30 11:45:24;;;;;;;52.60;49.45;;;;;;;10.12;54.86;100431.13;5070636;28;20059;-79
2022/01/30 11:47:52;;;;;;;52.20;49.20;;;;;;;12.23;51.09;100411.09;5070038;28;20052;-78
2022/01/30 11:50:20;;;;;;;52.47;49.60;;;;;;;12.61;48.75;100396.66;5070292;28;20048;-80
2022/01/30 11:52:55;;;;;;;53.70;50.47;;;;;;;11.30;50.29;100379.31;5070297;28;20052;-79